Colombo Express — DIHC — position and weather

sailwx.info

Track history (hours):
 
Tides and Currents Weather Stations Pressure Air Temp Water Temp Dewpoint Dewpoint Depression Visibility Wind Speed Wind Dir Waves Ship Positions

Colombo Express

Last reported at 2019-May-23 21:57 UTC. Time now 2019-May-24 01:28 UTC.
Position N 34°58' E 128°49'.

Length 335.5 m; beam 42.8 m; draft 14.6 m.

Type: Ship (hazmat cat A). MMSI: 211433000.

Date/timePositionNaut miles runAvg speedWind from/ knotsBaromVisibWave heightAir tempDewpointWater temp
2019-May-23 21:57N 34°58' E 128°49'13517.0
2019-May-23 14:01N 33°16' E 127°02'4017.9
2019-May-23 11:45N 32°50' E 126°26'418.2
2019-May-23 11:30N 32°47' E 126°22'918.1
2019-May-23 11:00N 32°40' E 126°15'1018.2
2019-May-23 10:29N 32°34' E 126°06'1018.4
2019-May-23 09:57N 32°28' E 125°57'818.4
2019-May-23 09:30N 32°23' E 125°49'1218.4
2019-May-23 08:50N 32°16' E 125°37'1018.4
2019-May-23 08:18N 32°10' E 125°28'518.5
2019-May-23 08:01N 32°06' E 125°23'918.5
2019-May-23 07:31N 31°60' E 125°15'918.7
2019-May-23 07:00N 31°53' E 125°07'1019.3
2019-May-23 06:28N 31°46' E 124°58'919.3
2019-May-23 06:00N 31°41' E 124°50'5590.7
2019-May-23 06:00N 31°36' E 124°48'611.7 200 / 141012.210.8 21.317.818.0
2019-May-23 05:30N 31°34' E 124°42'1019.5
2019-May-23 04:59N 31°28' E 124°33'919.5
2019-May-23 04:30N 31°22' E 124°24'1019.0
2019-May-23 03:59N 31°16' E 124°15'5718.2
2019-May-23 00:50N 31°06' E 123°09'618.7
2019-May-23 00:30N 31°06' E 123°02'1219.0
2019-May-22 23:52N 31°06' E 122°48'719.5
2019-May-22 23:30N 31°06' E 122°40'1018.3
2019-May-22 22:57N 31°06' E 122°28'511.5
2019-May-22 22:30N 31°06' E 122°22'713.4
2019-May-22 22:00N 31°08' E 122°14'612.0
2019-May-22 21:30N 31°12' E 122°09'611.0
2019-May-22 21:00N 31°14' E 122°03'613.1
2019-May-22 20:30N 31°15' E 121°55'713.6
2019-May-22 20:00N 31°18' E 121°48'612.1
2019-May-22 19:30N 31°20' E 121°41'510.6
2019-May-22 19:00N 31°23' E 121°36'1 1.4
2019-May-22 18:14N 31°23' E 121°35'0 0.5
2019-May-22 17:59N 31°23' E 121°35'0 0.0
2019-May-22 17:31N 31°23' E 121°35'0 0.0
2019-May-22 16:58N 31°23' E 121°35'0 0.0
2019-May-22 16:21N 31°23' E 121°35'0 0.0
2019-May-22 15:56N 31°23' E 121°35'0 0.0
2019-May-22 15:26N 31°23' E 121°35'0 0.0
2019-May-22 14:51N 31°23' E 121°35'0 0.0
2019-May-22 14:30N 31°23' E 121°35'0 0.0
2019-May-21 22:03N 31°23' E 121°35'0 0.0
2019-May-21 21:36N 31°23' E 121°35'0 0.0
2019-May-21 21:18N 31°23' E 121°35'0 0.0
2019-May-21 20:45N 31°23' E 121°35'10 0.6
2019-May-21 04:49N 31°19' E 121°45'410.8
2019-May-21 04:26N 31°17' E 121°50'4 9.5
2019-May-21 04:00N 31°16' E 121°54'510.7
2019-May-21 03:30N 31°15' E 122°00'610.8
2019-May-21 02:56N 31°13' E 122°07'511.5
2019-May-21 02:31N 31°10' E 122°12'510.4
2019-May-21 02:01N 31°07' E 122°17'4 7.5
2019-May-21 01:31N 31°06' E 122°21'4 6.7
2019-May-21 00:58N 31°06' E 122°25'4 7.5
2019-May-21 00:30N 31°07' E 122°29'4 8.4
2019-May-21 00:01N 31°07' E 122°34'5 9.0
2019-May-20 23:30N 31°07' E 122°40'4 8.7
2019-May-20 23:00N 31°09' E 122°44'3 5.4
2019-May-20 22:27N 31°10' E 122°47'0 0.0
2019-May-20 21:58N 31°10' E 122°47'6 0.4
2019-May-20 06:00N 31°06' E 122°42'6 1.0 350 / 241013.010.8 20.1 5.918.0
2019-May-19 23:58N 31°10' E 122°47'108 2.6
2019-May-18 06:00N 31°42' E 124°48'   290 / 71004.110.8 23.417.315.0
Track history (hours):
 
Tides and Currents Weather Stations Pressure Air Temp Water Temp Dewpoint Dewpoint Depression Visibility Wind Speed Wind Dir Waves Ship Positions

Colombo Express

Last reported at 2019-May-23 21:57 UTC. Time now 2019-May-24 01:28 UTC.
Position N 34°58' E 128°49'.

Length 335.5 m; beam 42.8 m; draft 14.6 m.

Type: Ship (hazmat cat A). MMSI: 211433000.

Date/timePositionNaut miles runAvg speedWind from/ knotsBaromVisibWave heightAir tempDewpointWater temp
2019-May-23 21:57N 34°58' E 128°49'13517.0
2019-May-23 14:01N 33°16' E 127°02'4017.9
2019-May-23 11:45N 32°50' E 126°26'418.2
2019-May-23 11:30N 32°47' E 126°22'918.1
2019-May-23 11:00N 32°40' E 126°15'1018.2
2019-May-23 10:29N 32°34' E 126°06'1018.4
2019-May-23 09:57N 32°28' E 125°57'818.4
2019-May-23 09:30N 32°23' E 125°49'1218.4
2019-May-23 08:50N 32°16' E 125°37'1018.4
2019-May-23 08:18N 32°10' E 125°28'518.5
2019-May-23 08:01N 32°06' E 125°23'918.5
2019-May-23 07:31N 31°60' E 125°15'918.7
2019-May-23 07:00N 31°53' E 125°07'1019.3
2019-May-23 06:28N 31°46' E 124°58'919.3
2019-May-23 06:00N 31°41' E 124°50'5590.7
2019-May-23 06:00N 31°36' E 124°48'611.7 200 / 141012.210.8 21.317.818.0
2019-May-23 05:30N 31°34' E 124°42'1019.5
2019-May-23 04:59N 31°28' E 124°33'919.5
2019-May-23 04:30N 31°22' E 124°24'1019.0
2019-May-23 03:59N 31°16' E 124°15'5718.2
2019-May-23 00:50N 31°06' E 123°09'618.7
2019-May-23 00:30N 31°06' E 123°02'1219.0
2019-May-22 23:52N 31°06' E 122°48'719.5
2019-May-22 23:30N 31°06' E 122°40'1018.3
2019-May-22 22:57N 31°06' E 122°28'511.5
2019-May-22 22:30N 31°06' E 122°22'713.4
2019-May-22 22:00N 31°08' E 122°14'612.0
2019-May-22 21:30N 31°12' E 122°09'611.0
2019-May-22 21:00N 31°14' E 122°03'613.1
2019-May-22 20:30N 31°15' E 121°55'713.6
2019-May-22 20:00N 31°18' E 121°48'612.1
2019-May-22 19:30N 31°20' E 121°41'510.6
2019-May-22 19:00N 31°23' E 121°36'1 1.4
2019-May-22 18:14N 31°23' E 121°35'0 0.5
2019-May-22 17:59N 31°23' E 121°35'0 0.0
2019-May-22 17:31N 31°23' E 121°35'0 0.0
2019-May-22 16:58N 31°23' E 121°35'0 0.0
2019-May-22 16:21N 31°23' E 121°35'0 0.0
2019-May-22 15:56N 31°23' E 121°35'0 0.0
2019-May-22 15:26N 31°23' E 121°35'0 0.0
2019-May-22 14:51N 31°23' E 121°35'0 0.0
2019-May-22 14:30N 31°23' E 121°35'0 0.0
2019-May-21 22:03N 31°23' E 121°35'0 0.0
2019-May-21 21:36N 31°23' E 121°35'0 0.0
2019-May-21 21:18N 31°23' E 121°35'0 0.0
2019-May-21 20:45N 31°23' E 121°35'10 0.6
2019-May-21 04:49N 31°19' E 121°45'410.8
2019-May-21 04:26N 31°17' E 121°50'4 9.5
2019-May-21 04:00N 31°16' E 121°54'510.7
2019-May-21 03:30N 31°15' E 122°00'610.8
2019-May-21 02:56N 31°13' E 122°07'511.5
2019-May-21 02:31N 31°10' E 122°12'510.4
2019-May-21 02:01N 31°07' E 122°17'4 7.5
2019-May-21 01:31N 31°06' E 122°21'4 6.7
2019-May-21 00:58N 31°06' E 122°25'4 7.5
2019-May-21 00:30N 31°07' E 122°29'4 8.4
2019-May-21 00:01N 31°07' E 122°34'5 9.0
2019-May-20 23:30N 31°07' E 122°40'4 8.7
2019-May-20 23:00N 31°09' E 122°44'3 5.4
2019-May-20 22:27N 31°10' E 122°47'0 0.0
2019-May-20 21:58N 31°10' E 122°47'6 0.4
2019-May-20 06:00N 31°06' E 122°42'6 1.0 350 / 241013.010.8 20.1 5.918.0
2019-May-19 23:58N 31°10' E 122°47'108 2.6
2019-May-18 06:00N 31°42' E 124°48'   290 / 71004.110.8 23.417.315.0

Dump ship's entire track history